Time;durP1;ratioP1;P1;durP2;ratioP2;P2;SDS_P1;SDS_P2;PMS_P1;PMS_P2;Temp;Humidity;BMP_temperature;BMP_pressure;BME280_temperature;BME280_humidity;BME280_pressure;Samples;Min_cycle;Max_cycle;Signal;HPM_P1;HPM_P2
2021/05/12 00:01:54;;;;;;;;;;;11.80;99.90;;;;;;10337517;28;19933;-88
2021/05/12 00:06:55;;;;;;;;;;;11.60;99.90;;;;;;10375371;28;19926;-88
2021/05/12 00:11:57;;;;;;;;;;;11.60;99.90;;;;;;10359361;28;20308;-88
2021/05/12 00:17:00;;;;;;;;;;;11.50;99.90;;;;;;10359829;28;19926;-88
2021/05/12 00:27:10;;;;;;;;;;;11.40;99.90;;;;;;10319375;28;19948;-89
2021/05/12 00:32:11;;;;;;;;;;;11.40;99.90;;;;;;10318744;28;20361;-88
2021/05/12 00:37:13;;;;;;;;;;;11.30;99.90;;;;;;10317301;28;19925;-88
2021/05/12 00:42:15;;;;;;;;;;;11.20;99.90;;;;;;10322033;28;19929;-88
2021/05/12 00:47:23;;;;;;;;;;;11.30;99.90;;;;;;10374548;28;19925;-88
2021/05/12 00:52:25;;;;;;;;;;;11.20;99.90;;;;;;10356987;28;20308;-87
2021/05/12 00:57:27;;;;;;;;;;;11.20;99.90;;;;;;10356615;28;19926;-88
2021/05/12 01:02:30;;;;;;;;;;;11.00;99.90;;;;;;10372280;28;19929;-87
2021/05/12 01:07:32;;;;;;;;;;;11.00;99.90;;;;;;10373281;28;20262;-89
2021/05/12 01:12:34;;;;;;;;;;;11.00;99.90;;;;;;10340629;28;20000;-88
2021/05/12 01:17:35;;;;;;;;;;;10.90;99.90;;;;;;10340668;28;19933;-88
2021/05/12 01:22:37;;;;;;;;;;;11.00;99.90;;;;;;10339599;28;19926;-88
2021/05/12 01:27:39;;;;;;;;;;;11.00;99.90;;;;;;10355392;28;20360;-88
2021/05/12 01:32:41;;;;;;;;;;;10.90;99.90;;;;;;10332960;28;19932;-88
2021/05/12 01:37:43;;;;;;;;;;;11.00;99.90;;;;;;10332035;28;19933;-88
2021/05/12 01:42:44;;;;;;;;;;;10.90;99.90;;;;;;10315338;28;19925;-88
2021/05/12 01:47:46;;;;;;;;;;;10.90;99.90;;;;;;10316428;28;20262;-88
2021/05/12 01:52:48;;;;;;;;;;;10.80;99.90;;;;;;10348727;28;19925;-88
2021/05/12 01:57:50;;;;;;;;;;;10.70;99.90;;;;;;10363195;28;19933;-88
2021/05/12 02:02:53;;;;;;;;;;;10.80;99.90;;;;;;10361392;28;20447;-88
2021/05/12 02:07:56;;;;;;;;;;;10.70;99.90;;;;;;10380759;28;19932;-88
2021/05/12 02:12:58;;;;;;;;;;;10.70;99.90;;;;;;10369319;28;20013;-88
2021/05/12 02:18:00;;;;;;;;;;;10.80;99.90;;;;;;10340279;28;20288;-87
2021/05/12 02:23:03;;;;;;;;;;;10.80;99.90;;;;;;10340688;28;19925;-88
2021/05/12 02:28:07;;;;;;;;;;;10.90;99.90;;;;;;10322937;28;20387;-88
2021/05/12 02:33:10;;;;;;;;;;;10.90;99.90;;;;;;10323515;28;20400;-88
2021/05/12 02:38:12;;;;;;;;;;;11.00;99.90;;;;;;10343230;28;19933;-88
2021/05/12 02:43:13;;;;;;;;;;;11.00;99.90;;;;;;10363528;28;19932;-88
2021/05/12 02:48:15;;;;;;;;;;;11.00;99.90;;;;;;10380223;28;20399;-88
2021/05/12 02:53:19;;;;;;;;;;;11.00;99.90;;;;;;10363182;28;19932;-88
2021/05/12 02:58:21;;;;;;;;;;;11.10;99.90;;;;;;10379704;28;19973;-88
2021/05/12 03:03:23;;;;;;;;;;;11.00;99.90;;;;;;10363583;28;19926;-88
2021/05/12 03:08:25;;;;;;;;;;;11.00;99.90;;;;;;10321446;28;19965;-88
2021/05/12 03:13:27;;;;;;;;;;;10.90;99.90;;;;;;10321772;28;19932;-88
2021/05/12 03:18:29;;;;;;;;;;;10.80;99.90;;;;;;10305589;28;19926;-88
2021/05/12 03:23:31;;;;;;;;;;;10.80;99.90;;;;;;10321585;28;19933;-89
2021/05/12 03:28:32;;;;;;;;;;;10.80;99.90;;;;;;10338742;28;19932;-88
2021/05/12 03:33:35;;;;;;;;;;;10.90;99.90;;;;;;10324864;28;19944;-88
2021/05/12 03:38:38;;;;;;;;;;;10.70;99.90;;;;;;10360362;28;20296;-88
2021/05/12 03:43:40;;;;;;;;;;;10.70;99.90;;;;;;10367461;28;19925;-88
2021/05/12 03:48:41;;;;;;;;;;;10.50;99.90;;;;;;10377875;28;20391;-88
2021/05/12 03:53:43;;;;;;;;;;;10.40;99.90;;;;;;10360598;28;19947;-88
2021/05/12 03:58:45;;;;;;;;;;;10.50;99.90;;;;;;10377247;28;19936;-88
2021/05/12 04:03:47;;;;;;;;;;;10.50;99.90;;;;;;10339263;28;20016;-87
2021/05/12 04:08:49;;;;;;;;;;;10.50;99.90;;;;;;10320020;28;19925;-88
2021/05/12 04:13:50;;;;;;;;;;;10.50;99.90;;;;;;10336341;28;20373;-88
2021/05/12 04:18:52;;;;;;;;;;;10.50;99.90;;;;;;10319570;28;19926;-88
2021/05/12 04:23:54;;;;;;;;;;;10.60;99.90;;;;;;10302692;28;19932;-88
2021/05/12 04:28:55;;;;;;;;;;;10.70;99.90;;;;;;10319027;28;20297;-88
2021/05/12 04:33:57;;;;;;;;;;;10.70;99.90;;;;;;10334043;28;19936;-87
2021/05/12 04:38:59;;;;;;;;;;;10.70;99.90;;;;;;10302365;28;20007;-88
2021/05/12 04:44:02;;;;;;;;;;;10.70;99.90;;;;;;10335844;28;19968;-88
2021/05/12 04:49:06;;;;;;;;;;;10.60;99.90;;;;;;10334849;28;19948;-88
2021/05/12 04:54:09;;;;;;;;;;;10.60;99.90;;;;;;10317885;28;19933;-88
2021/05/12 04:59:11;;;;;;;;;;;10.80;99.90;;;;;;10317406;28;20020;-87
2021/05/12 05:04:15;;;;;;;;;;;11.00;99.90;;;;;;10319143;28;19932;-88
2021/05/12 05:09:17;;;;;;;;;;;11.60;99.90;;;;;;10302286;28;19926;-88
2021/05/12 05:14:19;;;;;;;;;;;11.30;99.90;;;;;;10335140;28;19926;-88
2021/05/12 05:19:21;;;;;;;;;;;11.20;99.90;;;;;;10301682;28;19926;-88
2021/05/12 05:24:23;;;;;;;;;;;11.20;99.90;;;;;;10334598;28;19926;-88
2021/05/12 05:29:25;;;;;;;;;;;11.20;99.90;;;;;;10335505;28;19930;-88
2021/05/12 05:34:26;;;;;;;;;;;11.20;99.90;;;;;;10325283;28;19925;-88
2021/05/12 05:39:35;;;;;;;;;;;11.10;99.90;;;;;;10316409;28;20393;-88
2021/05/12 05:44:40;;;;;;;;;;;11.00;99.90;;;;;;10352696;28;19925;-87
2021/05/12 05:54:44;;;;;;;;;;;11.30;99.90;;;;;;10372989;28;19926;-87
2021/05/12 05:59:46;;;;;;;;;;;11.60;99.90;;;;;;10339883;28;19929;-88
2021/05/12 06:04:48;;;;;;;;;;;12.00;99.90;;;;;;10356481;28;19925;-91
2021/05/12 06:09:50;;;;;;;;;;;12.70;99.90;;;;;;10357809;28;19934;-89
2021/05/12 06:14:52;;;;;;;;;;;13.10;99.90;;;;;;10356080;28;20284;-89
2021/05/12 06:20:14;;;;;;;;;;;12.90;99.90;;;;;;10359559;28;19926;-87
2021/05/12 06:25:16;;;;;;;;;;;13.60;99.90;;;;;;10374377;28;19932;-88
2021/05/12 06:30:18;;;;;;;;;;;14.40;99.90;;;;;;10340177;28;19932;-88
2021/05/12 06:35:20;;;;;;;;;;;15.00;99.90;;;;;;10359278;28;19933;-87
2021/05/12 06:40:21;;;;;;;;;;;15.30;99.90;;;;;;10347439;28;19947;-88
2021/05/12 06:45:23;;;;;;;;;;;15.80;99.90;;;;;;10322744;28;19932;-88
2021/05/12 06:50:25;;;;;;;;;;;15.90;99.90;;;;;;10361865;28;19929;-88
2021/05/12 06:55:27;;;;;;;;;;;15.90;99.90;;;;;;10363545;28;19929;-88
2021/05/12 07:00:29;;;;;;;;;;;16.30;99.90;;;;;;10346107;28;20432;-88
2021/05/12 07:05:31;;;;;;;;;;;16.60;99.90;;;;;;10347100;28;19932;-88
2021/05/12 07:10:32;;;;;;;;;;;17.20;99.90;;;;;;10378850;28;20369;-89
2021/05/12 07:15:35;;;;;;;;;;;17.30;99.90;;;;;;10361852;28;20300;-89
2021/05/12 07:20:36;;;;;;;;;;;17.70;99.90;;;;;;10362242;28;19929;-89
2021/05/12 07:25:38;;;;;;;;;;;18.00;99.90;;;;;;10361914;28;19925;-89
2021/05/12 07:30:41;;;;;;;;;;;18.00;99.90;;;;;;10322248;28;20423;-89
2021/05/12 07:35:43;;;;;;;;;;;18.00;99.90;;;;;;10321045;28;20289;-89
2021/05/12 07:40:45;;;;;;;;;;;18.40;99.70;;;;;;10338789;28;19926;-89
2021/05/12 07:45:47;;;;;;;;;;;18.80;99.80;;;;;;10337931;28;20399;-89
2021/05/12 07:50:48;;;;;;;;;;;19.00;98.20;;;;;;10304930;28;19944;-89
2021/05/12 07:55:50;;;;;;;;;;;19.20;97.60;;;;;;10320842;28;20288;-89
2021/05/12 08:00:53;;;;;;;;;;;18.90;96.50;;;;;;10355176;28;19932;-90
2021/05/12 08:05:55;;;;;;;;;;;19.30;94.80;;;;;;10360335;28;20464;-90
2021/05/12 08:10:57;;;;;;;;;;;19.50;96.10;;;;;;10340645;28;19937;-90
2021/05/12 08:15:59;;;;;;;;;;;19.50;94.10;;;;;;10303822;28;19925;-90
2021/05/12 08:21:01;;;;;;;;;;;20.00;94.50;;;;;;10337191;28;19926;-90
2021/05/12 08:26:03;;;;;;;;;;;20.20;94.00;;;;;;10303755;28;20012;-90
2021/05/12 08:31:05;;;;;;;;;;;20.10;91.70;;;;;;10376397;28;19926;-89
2021/05/12 08:36:07;;;;;;;;;;;20.90;91.10;;;;;;10359794;28;19937;-90
2021/05/12 08:41:09;;;;;;;;;;;20.10;90.50;;;;;;10358078;28;19926;-89
2021/05/12 08:46:13;;;;;;;;;;;19.90;85.80;;;;;;10342269;28;19948;-89
2021/05/12 08:51:19;;;;;;;;;;;20.40;86.30;;;;;;10359574;28;19925;-90
2021/05/12 08:56:21;;;;;;;;;;;20.10;84.70;;;;;;10371243;28;20020;-90
2021/05/12 09:01:32;;;;;;;;;;;20.20;90.70;;;;;;10319429;28;19926;-90
2021/05/12 09:06:36;;;;;;;;;;;20.60;85.10;;;;;;10317587;28;19969;-91
2021/05/12 09:11:38;;;;;;;;;;;20.50;88.90;;;;;;10318105;28;19932;-90
2021/05/12 09:16:44;;;;;;;;;;;19.80;85.50;;;;;;10302028;28;20020;-91
2021/05/12 09:21:47;;;;;;;;;;;20.60;83.60;;;;;;10318876;28;19934;-91
2021/05/12 09:26:50;;;;;;;;;;;20.80;78.40;;;;;;10325809;28;20024;-90
2021/05/12 09:32:00;;;;;;;;;;;21.40;81.50;;;;;;10342135;28;19926;-90
2021/05/12 09:37:21;;;;;;;;;;;21.00;78.70;;;;;;10334103;28;19933;-90
2021/05/12 09:42:23;;;;;;;;;;;21.40;75.70;;;;;;10317005;28;19925;-90
2021/05/12 09:47:29;;;;;;;;;;;19.10;83.80;;;;;;10317512;28;19933;-90
2021/05/12 09:52:30;;;;;;;;;;;18.00;90.20;;;;;;10334505;28;19926;-91
2021/05/12 09:57:32;;;;;;;;;;;20.70;81.90;;;;;;10316909;28;19925;-90
2021/05/12 10:02:46;;;;;;;;;;;20.20;82.00;;;;;;10316288;28;20262;-90
2021/05/12 10:07:49;;;;;;;;;;;21.30;80.10;;;;;;10317277;28;19949;-89
2021/05/12 10:12:51;;;;;;;;;;;20.50;80.30;;;;;;10342436;28;19973;-91
2021/05/12 10:17:53;;;;;;;;;;;19.20;84.00;;;;;;10342301;28;19932;-91
2021/05/12 10:22:56;;;;;;;;;;;19.50;88.80;;;;;;10323911;28;20025;-91
2021/05/12 10:27:59;;;;;;;;;;;17.10;85.20;;;;;;10307292;28;19936;-90
2021/05/12 10:33:00;;;;;;;;;;;21.00;89.20;;;;;;10340844;28;19948;-92
2021/05/12 10:38:03;;;;;;;;;;;19.70;82.40;;;;;;10307894;28;20028;-92
2021/05/12 10:43:09;;;;;;;;;;;18.50;87.20;;;;;;10324343;28;19932;-91
2021/05/12 10:48:29;;;;;;;;;;;19.80;92.90;;;;;;10324184;28;19952;-91
2021/05/12 10:53:32;;;;;;;;;;;18.80;83.00;;;;;;10322828;28;19925;-90
2021/05/12 10:58:38;;;;;;;;;;;18.90;88.60;;;;;;10306822;28;19925;-89
2021/05/12 11:03:52;;;;;;;;;;;18.50;87.90;;;;;;10322403;28;20373;-89
2021/05/12 11:09:01;;;;;;;;;;;18.30;90.20;;;;;;10339620;28;19936;-90
2021/05/12 11:14:23;;;;;;;;;;;18.20;85.40;;;;;;10312428;28;19926;-90
2021/05/12 11:19:40;;;;;;;;;;;18.70;82.80;;;;;;10295398;28;19932;-92
2021/05/12 11:24:53;;;;;;;;;;;19.10;83.20;;;;;;10322496;28;20316;-91
2021/05/12 11:34:57;;;;;;;;;;;18.00;84.00;;;;;;10321868;28;19936;-91
2021/05/12 11:39:58;;;;;;;;;;;17.70;81.80;;;;;;10338102;28;19925;-91
2021/05/12 11:45:07;;;;;;;;;;;18.20;90.30;;;;;;10333360;28;19926;-90
2021/05/12 11:50:29;;;;;;;;;;;18.50;80.30;;;;;;10304739;23;19934;-89
2021/05/12 11:55:32;;;;;;;;;;;18.80;85.50;;;;;;10296307;28;20400;-88
2021/05/12 12:00:37;;;;;;;;;;;18.70;80.30;;;;;;10296963;28;19932;-88
2021/05/12 12:05:48;;;;;;;;;;;19.00;83.70;;;;;;10296356;28;19961;-88
2021/05/12 12:11:03;;;;;;;;;;;18.60;83.50;;;;;;10295949;28;19926;-90
2021/05/12 12:16:05;;;;;;;;;;;18.80;86.00;;;;;;10295912;28;19926;-89
2021/05/12 12:21:08;;;;;;;;;;;20.10;81.80;;;;;;10294988;28;20013;-88
2021/05/12 12:26:20;;;;;;;;;;;20.90;78.30;;;;;;10294606;28;19932;-88
2021/05/12 12:31:25;;;;;;;;;;;19.60;74.80;;;;;;10327828;28;19932;-89
2021/05/12 12:36:27;;;;;;;;;;;19.60;79.10;;;;;;10319202;28;19926;-88
2021/05/12 12:41:29;;;;;;;;;;;21.30;72.40;;;;;;10276220;28;20397;-88
2021/05/12 12:46:31;;;;;;;;;;;20.70;71.40;;;;;;10294760;28;19926;-89
2021/05/12 12:51:37;;;;;;;;;;;20.20;79.30;;;;;;10294175;28;19933;-89
2021/05/12 12:56:49;;;;;;;;;;;21.00;75.80;;;;;;10294084;28;19969;-88
2021/05/12 13:02:01;;;;;;;;;;;21.00;75.70;;;;;;10293229;28;20013;-92
2021/05/12 13:07:04;;;;;;;;;;;20.30;76.30;;;;;;10294634;28;20259;-85
2021/05/12 13:12:06;;;;;;;;;;;21.20;66.50;;;;;;10268140;28;19927;-85
2021/05/12 13:17:08;;;;;;;;;;;21.60;71.10;;;;;;10253136;29;19937;-86
2021/05/12 13:22:11;;;;;;;;;;;21.70;73.40;;;;;;10270180;28;19930;-85
2021/05/12 13:27:12;;;;;;;;;;;19.90;73.40;;;;;;10280261;28;20032;-86
2021/05/12 13:32:14;;;;;;;;;;;20.30;73.70;;;;;;10260672;28;20270;-85
2021/05/12 13:37:16;;;;;;;;;;;19.50;77.70;;;;;;10277112;28;19934;-85
2021/05/12 13:42:18;;;;;;;;;;;19.20;81.60;;;;;;10293677;28;19932;-85
2021/05/12 13:47:20;;;;;;;;;;;18.70;81.80;;;;;;10284169;28;20440;-85
2021/05/12 13:52:30;;;;;;;;;;;18.70;82.70;;;;;;10289704;28;20341;-85
2021/05/12 13:57:51;;;;;;;;;;;20.20;78.70;;;;;;10284141;28;19926;-85
2021/05/12 14:02:55;;;;;;;;;;;20.90;75.80;;;;;;10301404;28;19933;-89
2021/05/12 14:07:57;;;;;;;;;;;20.50;72.50;;;;;;10284205;28;20730;-88
2021/05/12 14:13:12;;;;;;;;;;;19.30;75.10;;;;;;10300219;28;19985;-88
2021/05/12 14:18:13;;;;;;;;;;;18.80;76.30;;;;;;10299734;28;20388;-88
2021/05/12 14:23:15;;;;;;;;;;;18.80;74.00;;;;;;10299074;28;19926;-88
2021/05/12 14:28:22;;;;;;;;;;;18.70;82.50;;;;;;10299211;28;19935;-88
2021/05/12 14:33:24;;;;;;;;;;;18.70;80.60;;;;;;10300730;28;20329;-88
2021/05/12 14:38:26;;;;;;;;;;;18.60;83.30;;;;;;10300365;28;19926;-88
2021/05/12 14:43:27;;;;;;;;;;;18.50;79.60;;;;;;10299227;28;20025;-85
2021/05/12 14:48:33;;;;;;;;;;;18.30;79.00;;;;;;10283310;28;19931;-85
2021/05/12 14:53:36;;;;;;;;;;;18.50;81.00;;;;;;10258805;28;20013;-85
2021/05/12 15:09:32;;;;;;;;;;;18.10;80.10;;;;;;10151121;29;19927;-85
2021/05/12 15:14:34;;;;;;;;;;;17.80;78.10;;;;;;10254728;28;19931;-85
2021/05/12 15:19:36;;;;;;;;;;;18.00;84.60;;;;;;10298206;28;20266;-85
2021/05/12 15:24:38;;;;;;;;;;;18.00;85.50;;;;;;10289018;28;19932;-85
2021/05/12 15:29:40;;;;;;;;;;;18.00;85.20;;;;;;10289075;28;19933;-85
2021/05/12 15:34:41;;;;;;;;;;;17.90;82.60;;;;;;10240631;29;20009;-85
2021/05/12 15:39:43;;;;;;;;;;;17.90;88.50;;;;;;10268299;28;19949;-85
2021/05/12 15:44:45;;;;;;;;;;;17.70;84.90;;;;;;10295985;28;20736;-89
2021/05/12 15:49:47;;;;;;;;;;;17.80;87.00;;;;;;10296328;28;19965;-86
2021/05/12 15:54:49;;;;;;;;;;;17.80;87.60;;;;;;10284086;28;19936;-89
2021/05/12 15:59:51;;;;;;;;;;;17.90;89.50;;;;;;10248268;28;19926;-85
2021/05/12 16:04:53;;;;;;;;;;;17.70;87.20;;;;;;10282080;28;20318;-85
2021/05/12 16:09:56;;;;;;;;;;;17.70;87.10;;;;;;10244753;29;20040;-85
2021/05/12 16:15:00;;;;;;;;;;;17.60;86.90;;;;;;10276017;28;20701;-85
2021/05/12 16:20:03;;;;;;;;;;;17.50;89.80;;;;;;10268860;28;20289;-86
2021/05/12 16:25:07;;;;;;;;;;;17.20;88.40;;;;;;10242682;28;20370;-84
2021/05/12 16:30:09;;;;;;;;;;;17.00;91.40;;;;;;10276334;28;20024;-86
2021/05/12 16:35:11;;;;;;;;;;;16.50;92.60;;;;;;10274045;28;19933;-84
2021/05/12 16:40:15;;;;;;;;;;;16.10;97.50;;;;;;10237772;29;20370;-84
2021/05/12 16:45:19;;;;;;;;;;;15.50;99.90;;;;;;10289098;28;20283;-84
2021/05/12 16:50:21;;;;;;;;;;;15.10;99.90;;;;;;10293321;28;20305;-85
2021/05/12 16:55:22;;;;;;;;;;;15.10;99.90;;;;;;10292608;28;20005;-84
2021/05/12 17:00:24;;;;;;;;;;;15.00;99.90;;;;;;10294655;28;19926;-84
2021/05/12 17:05:26;;;;;;;;;;;15.00;99.90;;;;;;10293055;28;19926;-84
2021/05/12 17:10:28;;;;;;;;;;;15.00;99.90;;;;;;10292772;28;19926;-84
